sensor_id;sensor_type;location;lat;lon;timestamp;temperature;humidity
51811;DHT22;52468;40.116;18.296;2023-05-10T00:01:36;18.50;74.20
51811;DHT22;52468;40.116;18.296;2023-05-10T00:04:04;18.50;73.90
51811;DHT22;52468;40.116;18.296;2023-05-10T00:06:31;18.50;73.80
51811;DHT22;52468;40.116;18.296;2023-05-10T00:08:59;18.70;73.40
51811;DHT22;52468;40.116;18.296;2023-05-10T00:11:28;18.60;73.20
51811;DHT22;52468;40.116;18.296;2023-05-10T00:13:56;18.60;72.80
51811;DHT22;52468;40.116;18.296;2023-05-10T00:16:23;18.60;72.90
51811;DHT22;52468;40.116;18.296;2023-05-10T00:18:51;18.70;72.80
51811;DHT22;52468;40.116;18.296;2023-05-10T00:21:19;18.70;72.70
51811;DHT22;52468;40.116;18.296;2023-05-10T00:23:47;18.60;71.90
51811;DHT22;52468;40.116;18.296;2023-05-10T00:26:15;18.50;72.60
51811;DHT22;52468;40.116;18.296;2023-05-10T00:28:49;18.50;72.60
51811;DHT22;52468;40.116;18.296;2023-05-10T00:31:18;18.50;72.60
51811;DHT22;52468;40.116;18.296;2023-05-10T00:33:46;18.50;72.60
51811;DHT22;52468;40.116;18.296;2023-05-10T00:36:13;18.40;72.50
51811;DHT22;52468;40.116;18.296;2023-05-10T00:38:41;18.30;73.00
51811;DHT22;52468;40.116;18.296;2023-05-10T00:41:09;18.30;72.90
51811;DHT22;52468;40.116;18.296;2023-05-10T00:43:39;18.30;73.10
51811;DHT22;52468;40.116;18.296;2023-05-10T00:46:07;18.30;73.20
51811;DHT22;52468;40.116;18.296;2023-05-10T00:48:35;18.30;73.00
51811;DHT22;52468;40.116;18.296;2023-05-10T00:51:03;18.40;72.90
51811;DHT22;52468;40.116;18.296;2023-05-10T00:53:31;18.40;73.10
51811;DHT22;52468;40.116;18.296;2023-05-10T00:56:00;18.40;73.10
51811;DHT22;52468;40.116;18.296;2023-05-10T00:58:28;18.40;73.10
51811;DHT22;52468;40.116;18.296;2023-05-10T01:00:58;18.40;73.10
51811;DHT22;52468;40.116;18.296;2023-05-10T01:03:28;18.40;73.10
51811;DHT22;52468;40.116;18.296;2023-05-10T01:05:55;18.40;73.10
51811;DHT22;52468;40.116;18.296;2023-05-10T01:08:25;18.40;73.20
51811;DHT22;52468;40.116;18.296;2023-05-10T01:10:54;18.40;73.10
51811;DHT22;52468;40.116;18.296;2023-05-10T01:13:41;18.40;73.20
51811;DHT22;52468;40.116;18.296;2023-05-10T01:16:09;18.40;73.10
51811;DHT22;52468;40.116;18.296;2023-05-10T01:18:41;18.50;72.90
51811;DHT22;52468;40.116;18.296;2023-05-10T01:29:22;18.50;72.70
51811;DHT22;52468;40.116;18.296;2023-05-10T01:32:14;18.40;72.90
51811;DHT22;52468;40.116;18.296;2023-05-10T01:35:37;18.50;72.90
51811;DHT22;52468;40.116;18.296;2023-05-10T01:37:42;18.50;72.80
51811;DHT22;52468;40.116;18.296;2023-05-10T01:40:37;18.50;72.60
51811;DHT22;52468;40.116;18.296;2023-05-10T01:43:12;18.60;72.30
51811;DHT22;52468;40.116;18.296;2023-05-10T01:45:59;18.60;72.40
51811;DHT22;52468;40.116;18.296;2023-05-10T01:48:32;18.70;72.20
51811;DHT22;52468;40.116;18.296;2023-05-10T01:51:00;18.60;72.30
51811;DHT22;52468;40.116;18.296;2023-05-10T01:53:29;18.60;72.20
51811;DHT22;52468;40.116;18.296;2023-05-10T01:55:59;18.50;72.50
51811;DHT22;52468;40.116;18.296;2023-05-10T01:58:30;18.60;72.30
51811;DHT22;52468;40.116;18.296;2023-05-10T02:01:01;18.50;72.10
51811;DHT22;52468;40.116;18.296;2023-05-10T02:03:31;18.60;72.20
51811;DHT22;52468;40.116;18.296;2023-05-10T02:06:00;18.60;72.10
51811;DHT22;52468;40.116;18.296;2023-05-10T02:08:29;18.70;71.90
51811;DHT22;52468;40.116;18.296;2023-05-10T02:10:58;18.80;71.70
51811;DHT22;52468;40.116;18.296;2023-05-10T02:13:29;18.80;71.50
51811;DHT22;52468;40.116;18.296;2023-05-10T02:15:59;18.70;71.50
51811;DHT22;52468;40.116;18.296;2023-05-10T02:18:27;18.80;71.50
51811;DHT22;52468;40.116;18.296;2023-05-10T02:20:56;18.80;71.40
51811;DHT22;52468;40.116;18.296;2023-05-10T02:23:25;18.80;71.50
51811;DHT22;52468;40.116;18.296;2023-05-10T02:25:54;18.80;71.50
51811;DHT22;52468;40.116;18.296;2023-05-10T02:28:25;18.80;71.60
51811;DHT22;52468;40.116;18.296;2023-05-10T02:30:56;18.80;71.50
51811;DHT22;52468;40.116;18.296;2023-05-10T02:33:25;18.80;71.50
51811;DHT22;52468;40.116;18.296;2023-05-10T02:35:53;18.70;71.40
51811;DHT22;52468;40.116;18.296;2023-05-10T02:38:22;18.70;71.60
51811;DHT22;52468;40.116;18.296;2023-05-10T02:40:52;18.60;71.70
51811;DHT22;52468;40.116;18.296;2023-05-10T02:43:23;18.50;72.10
51811;DHT22;52468;40.116;18.296;2023-05-10T02:45:51;18.50;72.40
51811;DHT22;52468;40.116;18.296;2023-05-10T02:48:19;18.50;72.60
51811;DHT22;52468;40.116;18.296;2023-05-10T02:50:51;18.40;72.80
51811;DHT22;52468;40.116;18.296;2023-05-10T02:53:22;18.40;73.10
51811;DHT22;52468;40.116;18.296;2023-05-10T02:55:52;18.30;73.40
51811;DHT22;52468;40.116;18.296;2023-05-10T02:58:21;18.30;73.50
51811;DHT22;52468;40.116;18.296;2023-05-10T03:00:49;18.30;73.50
51811;DHT22;52468;40.116;18.296;2023-05-10T03:03:18;18.30;73.50
51811;DHT22;52468;40.116;18.296;2023-05-10T03:05:46;18.30;73.50
51811;DHT22;52468;40.116;18.296;2023-05-10T03:08:13;18.30;73.80
51811;DHT22;52468;40.116;18.296;2023-05-10T03:10:50;18.30;73.70
51811;DHT22;52468;40.116;18.296;2023-05-10T03:16:25;18.40;73.40
51811;DHT22;52468;40.116;18.296;2023-05-10T03:18:56;18.50;73.40
51811;DHT22;52468;40.116;18.296;2023-05-10T03:21:29;18.40;73.40
51811;DHT22;52468;40.116;18.296;2023-05-10T03:23:59;18.40;73.40
51811;DHT22;52468;40.116;18.296;2023-05-10T03:26:28;18.40;73.40
51811;DHT22;52468;40.116;18.296;2023-05-10T03:29:12;18.50;73.20
51811;DHT22;52468;40.116;18.296;2023-05-10T03:31:41;18.50;73.20
51811;DHT22;52468;40.116;18.296;2023-05-10T03:34:10;18.50;73.20
51811;DHT22;52468;40.116;18.296;2023-05-10T03:36:39;18.50;73.10
51811;DHT22;52468;40.116;18.296;2023-05-10T03:39:07;18.50;73.10
51811;DHT22;52468;40.116;18.296;2023-05-10T03:41:35;18.50;73.10
51811;DHT22;52468;40.116;18.296;2023-05-10T03:44:03;18.60;73.00
51811;DHT22;52468;40.116;18.296;2023-05-10T03:46:31;18.70;72.90
51811;DHT22;52468;40.116;18.296;2023-05-10T03:48:59;18.70;72.60
51811;DHT22;52468;40.116;18.296;2023-05-10T03:51:27;18.80;72.30
51811;DHT22;52468;40.116;18.296;2023-05-10T03:53:55;18.70;72.60
51811;DHT22;52468;40.116;18.296;2023-05-10T03:56:23;18.70;72.60
51811;DHT22;52468;40.116;18.296;2023-05-10T03:58:51;18.70;72.70
51811;DHT22;52468;40.116;18.296;2023-05-10T04:01:19;18.70;72.60
51811;DHT22;52468;40.116;18.296;2023-05-10T04:03:47;18.80;72.60
51811;DHT22;52468;40.116;18.296;2023-05-10T04:06:15;18.80;72.50
51811;DHT22;52468;40.116;18.296;2023-05-10T04:08:42;19.00;72.20
51811;DHT22;52468;40.116;18.296;2023-05-10T04:11:11;18.90;72.30
51811;DHT22;52468;40.116;18.296;2023-05-10T04:13:40;19.00;72.20
51811;DHT22;52468;40.116;18.296;2023-05-10T04:16:08;19.00;72.30
51811;DHT22;52468;40.116;18.296;2023-05-10T04:18:36;19.00;72.10
51811;DHT22;52468;40.116;18.296;2023-05-10T04:21:03;19.00;72.10
51811;DHT22;52468;40.116;18.296;2023-05-10T04:23:31;19.10;71.80
51811;DHT22;52468;40.116;18.296;2023-05-10T04:26:00;19.20;71.50
51811;DHT22;52468;40.116;18.296;2023-05-10T04:28:28;19.40;71.00
51811;DHT22;52468;40.116;18.296;2023-05-10T04:31:06;19.40;70.90
51811;DHT22;52468;40.116;18.296;2023-05-10T04:33:35;19.40;70.80
51811;DHT22;52468;40.116;18.296;2023-05-10T04:36:03;19.50;70.70
51811;DHT22;52468;40.116;18.296;2023-05-10T04:38:31;19.50;70.60
51811;DHT22;52468;40.116;18.296;2023-05-10T04:41:06;19.50;70.40
51811;DHT22;52468;40.116;18.296;2023-05-10T04:43:35;19.60;70.30
51811;DHT22;52468;40.116;18.296;2023-05-10T04:46:04;19.60;70.20
51811;DHT22;52468;40.116;18.296;2023-05-10T04:48:32;19.70;70.10
51811;DHT22;52468;40.116;18.296;2023-05-10T04:51:00;19.70;70.20
51811;DHT22;52468;40.116;18.296;2023-05-10T04:53:28;19.80;70.20
51811;DHT22;52468;40.116;18.296;2023-05-10T04:55:56;20.00;70.00
51811;DHT22;52468;40.116;18.296;2023-05-10T04:58:25;20.10;69.80
51811;DHT22;52468;40.116;18.296;2023-05-10T05:00:52;20.20;69.80
51811;DHT22;52468;40.116;18.296;2023-05-10T05:03:20;20.30;69.60
51811;DHT22;52468;40.116;18.296;2023-05-10T05:05:48;20.40;69.50
51811;DHT22;52468;40.116;18.296;2023-05-10T05:08:16;20.50;69.50
51811;DHT22;52468;40.116;18.296;2023-05-10T05:10:44;20.70;69.30
51811;DHT22;52468;40.116;18.296;2023-05-10T05:13:12;20.80;69.20
51811;DHT22;52468;40.116;18.296;2023-05-10T05:15:40;21.00;69.00
51811;DHT22;52468;40.116;18.296;2023-05-10T05:18:08;21.00;68.50
51811;DHT22;52468;40.116;18.296;2023-05-10T05:20:36;21.10;68.20
51811;DHT22;52468;40.116;18.296;2023-05-10T05:23:04;21.30;67.70
51811;DHT22;52468;40.116;18.296;2023-05-10T05:25:31;21.30;67.30
51811;DHT22;52468;40.116;18.296;2023-05-10T05:27:59;21.50;67.30
51811;DHT22;52468;40.116;18.296;2023-05-10T05:30:27;21.50;66.70
51811;DHT22;52468;40.116;18.296;2023-05-10T05:32:55;21.50;66.50
51811;DHT22;52468;40.116;18.296;2023-05-10T05:35:24;21.50;66.10
51811;DHT22;52468;40.116;18.296;2023-05-10T05:37:52;21.60;66.00
51811;DHT22;52468;40.116;18.296;2023-05-10T05:40:20;21.70;65.20
51811;DHT22;52468;40.116;18.296;2023-05-10T05:42:48;21.80;65.20
51811;DHT22;52468;40.116;18.296;2023-05-10T05:45:16;21.90;64.80
51811;DHT22;52468;40.116;18.296;2023-05-10T05:47:44;22.00;64.50
51811;DHT22;52468;40.116;18.296;2023-05-10T05:50:12;22.10;63.80
51811;DHT22;52468;40.116;18.296;2023-05-10T05:52:40;22.30;63.70
51811;DHT22;52468;40.116;18.296;2023-05-10T05:55:08;22.50;63.00
51811;DHT22;52468;40.116;18.296;2023-05-10T05:57:36;22.80;62.20
51811;DHT22;52468;40.116;18.296;2023-05-10T06:00:04;22.90;61.20
51811;DHT22;52468;40.116;18.296;2023-05-10T06:02:39;23.10;60.90
51811;DHT22;52468;40.116;18.296;2023-05-10T06:05:07;23.40;60.10
51811;DHT22;52468;40.116;18.296;2023-05-10T06:07:35;23.50;59.80
51811;DHT22;52468;40.116;18.296;2023-05-10T06:10:03;23.60;59.40
51811;DHT22;52468;40.116;18.296;2023-05-10T06:12:31;23.70;58.50
51811;DHT22;52468;40.116;18.296;2023-05-10T06:14:59;23.60;58.10
51811;DHT22;52468;40.116;18.296;2023-05-10T06:17:26;23.70;57.90
51811;DHT22;52468;40.116;18.296;2023-05-10T06:19:55;23.60;58.00
51811;DHT22;52468;40.116;18.296;2023-05-10T06:22:23;23.60;57.80
51811;DHT22;52468;40.116;18.296;2023-05-10T06:24:51;23.80;57.00
51811;DHT22;52468;40.116;18.296;2023-05-10T06:27:19;23.80;56.90
51811;DHT22;52468;40.116;18.296;2023-05-10T06:29:46;24.00;55.70
51811;DHT22;52468;40.116;18.296;2023-05-10T06:32:14;24.00;56.10
51811;DHT22;52468;40.116;18.296;2023-05-10T06:34:42;24.10;55.80
51811;DHT22;52468;40.116;18.296;2023-05-10T06:37:11;24.40;55.10
51811;DHT22;52468;40.116;18.296;2023-05-10T06:39:38;24.40;54.90
51811;DHT22;52468;40.116;18.296;2023-05-10T06:42:06;24.50;54.50
51811;DHT22;52468;40.116;18.296;2023-05-10T06:44:35;24.60;54.10
51811;DHT22;52468;40.116;18.296;2023-05-10T06:47:03;24.60;54.40
51811;DHT22;52468;40.116;18.296;2023-05-10T06:49:31;24.80;54.30
51811;DHT22;52468;40.116;18.296;2023-05-10T06:51:58;25.00;54.30
51811;DHT22;52468;40.116;18.296;2023-05-10T06:54:26;25.10;53.80
51811;DHT22;52468;40.116;18.296;2023-05-10T06:56:54;25.30;53.20
51811;DHT22;52468;40.116;18.296;2023-05-10T06:59:22;25.40;52.60
51811;DHT22;52468;40.116;18.296;2023-05-10T07:01:50;25.50;52.10
51811;DHT22;52468;40.116;18.296;2023-05-10T07:04:17;25.50;52.10
51811;DHT22;52468;40.116;18.296;2023-05-10T07:06:45;25.50;51.20
51811;DHT22;52468;40.116;18.296;2023-05-10T07:09:14;25.50;51.60
51811;DHT22;52468;40.116;18.296;2023-05-10T07:11:41;25.40;51.60
51811;DHT22;52468;40.116;18.296;2023-05-10T07:14:09;25.30;51.60
51811;DHT22;52468;40.116;18.296;2023-05-10T07:16:37;25.40;51.70
51811;DHT22;52468;40.116;18.296;2023-05-10T07:19:05;25.50;52.00
51811;DHT22;52468;40.116;18.296;2023-05-10T07:21:33;25.70;51.80
51811;DHT22;52468;40.116;18.296;2023-05-10T07:24:01;26.20;51.10
51811;DHT22;52468;40.116;18.296;2023-05-10T07:26:28;26.40;50.30
51811;DHT22;52468;40.116;18.296;2023-05-10T07:28:57;26.50;49.60
51811;DHT22;52468;40.116;18.296;2023-05-10T07:31:24;26.50;49.90
51811;DHT22;52468;40.116;18.296;2023-05-10T07:33:52;26.70;49.80
51811;DHT22;52468;40.116;18.296;2023-05-10T07:36:20;26.70;49.80
51811;DHT22;52468;40.116;18.296;2023-05-10T07:38:48;26.90;49.80
51811;DHT22;52468;40.116;18.296;2023-05-10T07:41:17;27.00;49.10
51811;DHT22;52468;40.116;18.296;2023-05-10T07:43:44;27.20;48.60
51811;DHT22;52468;40.116;18.296;2023-05-10T07:46:12;27.30;48.80
51811;DHT22;52468;40.116;18.296;2023-05-10T07:48:40;27.20;48.60
51811;DHT22;52468;40.116;18.296;2023-05-10T07:51:09;27.00;49.20
51811;DHT22;52468;40.116;18.296;2023-05-10T07:53:37;26.90;49.00
51811;DHT22;52468;40.116;18.296;2023-05-10T07:56:27;26.80;49.20
51811;DHT22;52468;40.116;18.296;2023-05-10T07:59:01;26.70;49.10
51811;DHT22;52468;40.116;18.296;2023-05-10T08:01:32;26.60;49.80
51811;DHT22;52468;40.116;18.296;2023-05-10T08:04:01;26.60;49.60
51811;DHT22;52468;40.116;18.296;2023-05-10T08:06:29;26.50;49.90
51811;DHT22;52468;40.116;18.296;2023-05-10T08:08:57;26.80;49.30
51811;DHT22;52468;40.116;18.296;2023-05-10T08:11:25;26.90;48.70
51811;DHT22;52468;40.116;18.296;2023-05-10T08:13:55;27.00;48.70
51811;DHT22;52468;40.116;18.296;2023-05-10T08:18:53;27.80;47.10
51811;DHT22;52468;40.116;18.296;2023-05-10T08:21:22;27.80;47.00
51811;DHT22;52468;40.116;18.296;2023-05-10T08:23:50;28.10;46.30
51811;DHT22;52468;40.116;18.296;2023-05-10T08:26:18;28.00;45.60
51811;DHT22;52468;40.116;18.296;2023-05-10T08:28:46;27.90;45.40
51811;DHT22;52468;40.116;18.296;2023-05-10T08:31:14;28.00;44.70
51811;DHT22;52468;40.116;18.296;2023-05-10T08:33:42;28.00;44.70
51811;DHT22;52468;40.116;18.296;2023-05-10T08:36:11;28.00;45.20
51811;DHT22;52468;40.116;18.296;2023-05-10T08:38:41;28.20;44.50
51811;DHT22;52468;40.116;18.296;2023-05-10T08:41:09;28.30;44.50
51811;DHT22;52468;40.116;18.296;2023-05-10T08:43:38;28.50;44.00
51811;DHT22;52468;40.116;18.296;2023-05-10T08:46:09;28.40;43.80
51811;DHT22;52468;40.116;18.296;2023-05-10T08:48:38;28.30;44.20
51811;DHT22;52468;40.116;18.296;2023-05-10T08:51:07;28.20;44.20
51811;DHT22;52468;40.116;18.296;2023-05-10T08:53:36;28.30;43.70
51811;DHT22;52468;40.116;18.296;2023-05-10T08:56:05;28.30;43.10
51811;DHT22;52468;40.116;18.296;2023-05-10T08:58:33;28.20;42.90
51811;DHT22;52468;40.116;18.296;2023-05-10T09:01:01;28.10;43.00
51811;DHT22;52468;40.116;18.296;2023-05-10T09:03:29;28.10;42.50
51811;DHT22;52468;40.116;18.296;2023-05-10T09:05:58;28.50;41.10
51811;DHT22;52468;40.116;18.296;2023-05-10T09:08:26;28.60;40.40
51811;DHT22;52468;40.116;18.296;2023-05-10T09:10:54;28.80;39.50
51811;DHT22;52468;40.116;18.296;2023-05-10T09:13:23;28.80;38.50
51811;DHT22;52468;40.116;18.296;2023-05-10T09:15:53;28.80;38.70
51811;DHT22;52468;40.116;18.296;2023-05-10T09:18:21;28.90;38.10
51811;DHT22;52468;40.116;18.296;2023-05-10T09:20:49;28.70;38.10
51811;DHT22;52468;40.116;18.296;2023-05-10T09:23:17;28.90;37.80
51811;DHT22;52468;40.116;18.296;2023-05-10T09:25:45;29.30;37.10
51811;DHT22;52468;40.116;18.296;2023-05-10T09:28:13;29.50;36.80
51811;DHT22;52468;40.116;18.296;2023-05-10T09:30:41;29.60;36.40
51811;DHT22;52468;40.116;18.296;2023-05-10T09:33:10;29.80;35.00
51811;DHT22;52468;40.116;18.296;2023-05-10T09:35:38;29.70;35.20
51811;DHT22;52468;40.116;18.296;2023-05-10T09:38:07;29.80;34.40
51811;DHT22;52468;40.116;18.296;2023-05-10T09:40:35;30.00;33.20
51811;DHT22;52468;40.116;18.296;2023-05-10T09:43:07;30.00;33.20
51811;DHT22;52468;40.116;18.296;2023-05-10T09:45:36;30.00;33.60
51811;DHT22;52468;40.116;18.296;2023-05-10T09:48:05;30.30;33.90
51811;DHT22;52468;40.116;18.296;2023-05-10T09:50:33;30.50;33.80
51811;DHT22;52468;40.116;18.296;2023-05-10T09:53:03;30.70;33.10
51811;DHT22;52468;40.116;18.296;2023-05-10T09:55:42;30.50;33.40
51811;DHT22;52468;40.116;18.296;2023-05-10T09:58:15;30.40;33.90
51811;DHT22;52468;40.116;18.296;2023-05-10T10:00:45;30.20;33.70
51811;DHT22;52468;40.116;18.296;2023-05-10T10:03:17;30.30;34.00
51811;DHT22;52468;40.116;18.296;2023-05-10T10:05:46;30.30;34.20
51811;DHT22;52468;40.116;18.296;2023-05-10T10:08:15;30.50;34.40
51811;DHT22;52468;40.116;18.296;2023-05-10T10:10:44;30.60;34.00
51811;DHT22;52468;40.116;18.296;2023-05-10T10:13:13;30.60;34.10
51811;DHT22;52468;40.116;18.296;2023-05-10T10:15:43;30.80;33.90
51811;DHT22;52468;40.116;18.296;2023-05-10T10:18:15;30.80;34.20
51811;DHT22;52468;40.116;18.296;2023-05-10T10:20:43;30.80;34.30
51811;DHT22;52468;40.116;18.296;2023-05-10T10:23:11;30.90;34.00
51811;DHT22;52468;40.116;18.296;2023-05-10T10:25:39;30.80;34.00
51811;DHT22;52468;40.116;18.296;2023-05-10T10:30:51;30.70;34.20
51811;DHT22;52468;40.116;18.296;2023-05-10T10:36:08;30.40;34.40
51811;DHT22;52468;40.116;18.296;2023-05-10T10:47:02;30.10;35.60
51811;DHT22;52468;40.116;18.296;2023-05-10T10:52:39;29.90;35.50
51811;DHT22;52468;40.116;18.296;2023-05-10T10:55:15;29.90;35.70
51811;DHT22;52468;40.116;18.296;2023-05-10T10:57:56;29.80;35.90
51811;DHT22;52468;40.116;18.296;2023-05-10T11:00:36;29.80;36.30
51811;DHT22;52468;40.116;18.296;2023-05-10T11:03:09;29.70;36.50
51811;DHT22;52468;40.116;18.296;2023-05-10T11:05:45;29.70;36.70
51811;DHT22;52468;40.116;18.296;2023-05-10T11:11:02;29.60;36.80
51811;DHT22;52468;40.116;18.296;2023-05-10T11:13:44;29.60;36.70
51811;DHT22;52468;40.116;18.296;2023-05-10T11:16:21;29.70;37.00
51811;DHT22;52468;40.116;18.296;2023-05-10T11:19:04;29.60;36.90
51811;DHT22;52468;40.116;18.296;2023-05-10T11:21:33;29.30;37.60
51811;DHT22;52468;40.116;18.296;2023-05-10T11:24:01;29.40;37.70
51811;DHT22;52468;40.116;18.296;2023-05-10T11:26:36;29.60;36.90
51811;DHT22;52468;40.116;18.296;2023-05-10T11:29:04;29.70;36.00
51811;DHT22;52468;40.116;18.296;2023-05-10T11:31:33;29.50;35.70
51811;DHT22;52468;40.116;18.296;2023-05-10T11:34:01;29.30;35.80
51811;DHT22;52468;40.116;18.296;2023-05-10T11:36:35;29.30;36.40
51811;DHT22;52468;40.116;18.296;2023-05-10T11:39:04;29.60;36.40
51811;DHT22;52468;40.116;18.296;2023-05-10T11:41:33;29.90;36.40
51811;DHT22;52468;40.116;18.296;2023-05-10T11:44:01;30.00;35.80
51811;DHT22;52468;40.116;18.296;2023-05-10T11:46:29;30.00;36.00
51811;DHT22;52468;40.116;18.296;2023-05-10T11:48:59;30.00;35.80
51811;DHT22;52468;40.116;18.296;2023-05-10T11:51:34;29.70;36.40
51811;DHT22;52468;40.116;18.296;2023-05-10T11:54:08;29.20;37.30
51811;DHT22;52468;40.116;18.296;2023-05-10T11:56:40;28.90;38.00
51811;DHT22;52468;40.116;18.296;2023-05-10T11:59:08;28.60;38.90
51811;DHT22;52468;40.116;18.296;2023-05-10T12:01:36;28.50;38.90
51811;DHT22;52468;40.116;18.296;2023-05-10T12:04:04;28.20;39.50
51811;DHT22;52468;40.116;18.296;2023-05-10T12:06:37;27.90;39.50
51811;DHT22;52468;40.116;18.296;2023-05-10T12:09:08;27.70;40.00
51811;DHT22;52468;40.116;18.296;2023-05-10T12:11:40;27.80;40.20
51811;DHT22;52468;40.116;18.296;2023-05-10T12:14:10;28.10;39.80
51811;DHT22;52468;40.116;18.296;2023-05-10T12:16:38;28.60;39.20
51811;DHT22;52468;40.116;18.296;2023-05-10T12:19:06;29.10;38.20
51811;DHT22;52468;40.116;18.296;2023-05-10T12:21:37;29.40;37.70
51811;DHT22;52468;40.116;18.296;2023-05-10T12:24:07;29.50;37.20
51811;DHT22;52468;40.116;18.296;2023-05-10T12:26:36;29.50;37.10
51811;DHT22;52468;40.116;18.296;2023-05-10T12:29:14;29.60;36.90
51811;DHT22;52468;40.116;18.296;2023-05-10T12:31:54;29.70;36.80
51811;DHT22;52468;40.116;18.296;2023-05-10T12:34:32;30.00;36.20
51811;DHT22;52468;40.116;18.296;2023-05-10T12:37:01;30.20;35.80
51811;DHT22;52468;40.116;18.296;2023-05-10T12:39:44;30.00;35.40
51811;DHT22;52468;40.116;18.296;2023-05-10T12:42:13;29.30;36.50
51811;DHT22;52468;40.116;18.296;2023-05-10T12:44:41;28.80;37.40
51811;DHT22;52468;40.116;18.296;2023-05-10T12:47:08;28.10;38.60
51811;DHT22;52468;40.116;18.296;2023-05-10T12:49:36;27.60;40.00
51811;DHT22;52468;40.116;18.296;2023-05-10T12:52:04;27.20;40.70
51811;DHT22;52468;40.116;18.296;2023-05-10T12:54:32;27.00;41.40
51811;DHT22;52468;40.116;18.296;2023-05-10T12:57:00;27.10;41.70
51811;DHT22;52468;40.116;18.296;2023-05-10T12:59:28;27.30;41.30
51811;DHT22;52468;40.116;18.296;2023-05-10T13:01:57;27.50;41.20
51811;DHT22;52468;40.116;18.296;2023-05-10T13:04:25;27.90;40.70
51811;DHT22;52468;40.116;18.296;2023-05-10T13:06:53;28.50;38.70
51811;DHT22;52468;40.116;18.296;2023-05-10T13:09:23;28.60;38.40
51811;DHT22;52468;40.116;18.296;2023-05-10T13:11:51;28.70;37.90
51811;DHT22;52468;40.116;18.296;2023-05-10T13:14:21;28.80;37.60
51811;DHT22;52468;40.116;18.296;2023-05-10T13:16:49;28.90;37.20
51811;DHT22;52468;40.116;18.296;2023-05-10T13:19:17;28.80;37.00
51811;DHT22;52468;40.116;18.296;2023-05-10T13:21:45;28.80;37.40
51811;DHT22;52468;40.116;18.296;2023-05-10T13:24:13;29.10;36.50
51811;DHT22;52468;40.116;18.296;2023-05-10T13:26:41;29.30;36.50
51811;DHT22;52468;40.116;18.296;2023-05-10T13:29:09;29.20;36.70
51811;DHT22;52468;40.116;18.296;2023-05-10T13:31:37;29.30;36.70
51811;DHT22;52468;40.116;18.296;2023-05-10T13:34:05;29.20;36.40
51811;DHT22;52468;40.116;18.296;2023-05-10T13:36:33;28.70;36.80
51811;DHT22;52468;40.116;18.296;2023-05-10T13:39:01;28.20;37.80
51811;DHT22;52468;40.116;18.296;2023-05-10T13:41:31;28.00;38.70
51811;DHT22;52468;40.116;18.296;2023-05-10T13:43:58;27.80;38.80
51811;DHT22;52468;40.116;18.296;2023-05-10T13:46:26;27.60;39.20
51811;DHT22;52468;40.116;18.296;2023-05-10T13:48:54;27.70;39.60
51811;DHT22;52468;40.116;18.296;2023-05-10T13:51:22;27.80;39.10
51811;DHT22;52468;40.116;18.296;2023-05-10T13:53:50;27.50;38.70
51811;DHT22;52468;40.116;18.296;2023-05-10T13:56:18;27.10;39.40
51811;DHT22;52468;40.116;18.296;2023-05-10T13:58:45;27.00;40.00
51811;DHT22;52468;40.116;18.296;2023-05-10T14:01:13;26.70;40.20
51811;DHT22;52468;40.116;18.296;2023-05-10T14:03:41;26.50;40.70
51811;DHT22;52468;40.116;18.296;2023-05-10T14:06:09;26.40;40.80
51811;DHT22;52468;40.116;18.296;2023-05-10T14:08:37;26.10;41.40
51811;DHT22;52468;40.116;18.296;2023-05-10T14:11:05;26.00;41.70
51811;DHT22;52468;40.116;18.296;2023-05-10T14:13:33;25.90;42.00
51811;DHT22;52468;40.116;18.296;2023-05-10T14:16:00;26.00;42.10
51811;DHT22;52468;40.116;18.296;2023-05-10T14:18:28;26.30;41.90
51811;DHT22;52468;40.116;18.296;2023-05-10T14:20:56;26.30;41.70
51811;DHT22;52468;40.116;18.296;2023-05-10T14:23:24;26.40;41.10
51811;DHT22;52468;40.116;18.296;2023-05-10T14:25:52;26.30;41.40
51811;DHT22;52468;40.116;18.296;2023-05-10T14:28:20;26.40;41.30
51811;DHT22;52468;40.116;18.296;2023-05-10T14:30:48;26.80;39.70
51811;DHT22;52468;40.116;18.296;2023-05-10T14:33:17;27.10;39.10
51811;DHT22;52468;40.116;18.296;2023-05-10T14:35:45;27.50;38.40
51811;DHT22;52468;40.116;18.296;2023-05-10T14:38:14;27.70;38.50
51811;DHT22;52468;40.116;18.296;2023-05-10T14:40:42;28.00;38.40
51811;DHT22;52468;40.116;18.296;2023-05-10T14:43:10;28.00;38.90
51811;DHT22;52468;40.116;18.296;2023-05-10T14:45:38;28.00;39.00
51811;DHT22;52468;40.116;18.296;2023-05-10T14:48:06;28.00;39.30
51811;DHT22;52468;40.116;18.296;2023-05-10T14:50:35;27.90;39.20
51811;DHT22;52468;40.116;18.296;2023-05-10T14:53:03;27.30;39.60
51811;DHT22;52468;40.116;18.296;2023-05-10T14:55:31;26.80;40.70
51811;DHT22;52468;40.116;18.296;2023-05-10T14:58:00;26.30;41.80
51811;DHT22;52468;40.116;18.296;2023-05-10T15:00:29;26.20;42.40
51811;DHT22;52468;40.116;18.296;2023-05-10T15:02:57;25.80;43.00
51811;DHT22;52468;40.116;18.296;2023-05-10T15:05:25;25.50;44.50
51811;DHT22;52468;40.116;18.296;2023-05-10T15:07:53;25.20;46.80
51811;DHT22;52468;40.116;18.296;2023-05-10T15:10:21;24.90;48.80
51811;DHT22;52468;40.116;18.296;2023-05-10T15:12:49;24.40;50.50
51811;DHT22;52468;40.116;18.296;2023-05-10T15:15:17;24.00;51.70
51811;DHT22;52468;40.116;18.296;2023-05-10T15:17:45;23.80;53.20
51811;DHT22;52468;40.116;18.296;2023-05-10T15:20:13;23.60;53.50
51811;DHT22;52468;40.116;18.296;2023-05-10T15:22:41;23.30;53.70
51811;DHT22;52468;40.116;18.296;2023-05-10T15:25:09;22.90;55.10
51811;DHT22;52468;40.116;18.296;2023-05-10T15:27:37;22.60;56.30
51811;DHT22;52468;40.116;18.296;2023-05-10T15:30:05;22.20;58.20
51811;DHT22;52468;40.116;18.296;2023-05-10T15:32:33;21.80;60.10
51811;DHT22;52468;40.116;18.296;2023-05-10T15:35:01;21.50;61.70
51811;DHT22;52468;40.116;18.296;2023-05-10T15:37:30;21.50;62.50
51811;DHT22;52468;40.116;18.296;2023-05-10T15:39:57;21.60;62.40
51811;DHT22;52468;40.116;18.296;2023-05-10T15:42:32;21.60;62.80
51811;DHT22;52468;40.116;18.296;2023-05-10T15:45:00;21.70;62.90
51811;DHT22;52468;40.116;18.296;2023-05-10T15:47:30;21.70;62.70
51811;DHT22;52468;40.116;18.296;2023-05-10T15:49:58;21.50;63.20
51811;DHT22;52468;40.116;18.296;2023-05-10T15:52:26;21.50;63.60
51811;DHT22;52468;40.116;18.296;2023-05-10T15:54:54;21.60;63.50
51811;DHT22;52468;40.116;18.296;2023-05-10T15:57:23;21.70;63.40
51811;DHT22;52468;40.116;18.296;2023-05-10T15:59:50;21.70;63.00
51811;DHT22;52468;40.116;18.296;2023-05-10T16:02:19;21.70;62.60